Time;durP1;ratioP1;P1;durP2;ratioP2;P2;SDS_P1;SDS_P2;PMS_P1;PMS_P2;Temp;Humidity;BMP_temperature;BMP_pressure;BME280_temperature;BME280_humidity;BME280_pressure;Samples;Min_cycle;Max_cycle;Signal;HPM_P1;HPM_P2
2021/05/03 00:00:36;;;;;;;6.33;4.73;;;5.40;99.90;;;;;;5016487;28;20466;-73
2021/05/03 00:03:02;;;;;;;6.00;5.47;;;5.40;99.90;;;;;;5016402;28;20458;-73
2021/05/03 00:05:29;;;;;;;5.60;4.83;;;5.30;99.90;;;;;;5016171;28;20444;-73
2021/05/03 00:07:56;;;;;;;7.87;5.87;;;5.30;99.90;;;;;;5016324;28;20522;-73
2021/05/03 00:10:23;;;;;;;6.40;5.77;;;5.30;99.90;;;;;;5016236;28;20455;-73
2021/05/03 00:12:49;;;;;;;6.47;5.63;;;5.20;99.90;;;;;;5016047;28;21029;-74
2021/05/03 00:15:16;;;;;;;8.40;5.37;;;5.20;99.90;;;;;;5016347;28;20542;-78
2021/05/03 00:17:43;;;;;;;5.50;4.83;;;5.20;99.90;;;;;;5015754;28;20488;-77
2021/05/03 00:20:11;;;;;;;7.43;5.70;;;5.20;99.90;;;;;;5016219;28;20459;-78
2021/05/03 00:22:37;;;;;;;6.60;5.90;;;5.20;99.90;;;;;;5015809;28;20545;-78
2021/05/03 00:25:06;;;;;;;6.70;5.83;;;5.20;99.90;;;;;;5016016;28;20487;-78
2021/05/03 00:27:32;;;;;;;7.80;6.13;;;5.10;99.90;;;;;;5015937;28;20468;-78
2021/05/03 00:29:59;;;;;;;9.23;6.83;;;5.00;99.90;;;;;;5015967;28;20444;-78
2021/05/03 00:32:25;;;;;;;9.30;6.73;;;5.00;99.90;;;;;;5015663;28;20458;-78
2021/05/03 00:34:52;;;;;;;7.40;5.80;;;5.00;99.90;;;;;;5015936;28;20451;-77
2021/05/03 00:37:18;;;;;;;8.37;6.77;;;5.00;99.90;;;;;;5015468;28;20998;-77
2021/05/03 00:39:44;;;;;;;9.80;6.77;;;4.90;99.90;;;;;;5015816;28;20454;-78
2021/05/03 00:42:12;;;;;;;9.90;5.93;;;4.90;99.90;;;;;;5015778;28;20443;-78
2021/05/03 00:44:38;;;;;;;8.00;7.13;;;4.90;99.90;;;;;;5015410;28;20479;-76
2021/05/03 00:47:04;;;;;;;7.57;6.17;;;4.90;99.90;;;;;;5014098;28;20471;-76
2021/05/03 00:49:31;;;;;;;8.40;6.13;;;5.00;99.90;;;;;;5015645;28;20832;-76
2021/05/03 00:51:58;;;;;;;8.50;6.63;;;5.00;99.90;;;;;;5015598;28;20483;-76
2021/05/03 00:54:24;;;;;;;8.70;6.30;;;5.00;99.90;;;;;;5016062;28;20497;-76
2021/05/03 00:56:51;;;;;;;8.30;6.70;;;5.00;99.90;;;;;;5015444;28;20471;-76
2021/05/03 00:59:18;;;;;;;8.30;6.70;;;5.00;99.90;;;;;;5015444;28;20444;-76
2021/05/03 01:01:44;;;;;;;8.70;6.43;;;5.00;99.90;;;;;;5015409;28;20447;-76
2021/05/03 01:04:10;;;;;;;6.50;5.90;;;5.00;99.90;;;;;;5014999;28;20487;-76
2021/05/03 01:06:37;;;;;;;9.27;6.87;;;4.90;99.90;;;;;;5015198;28;20474;-76
2021/05/03 01:09:04;;;;;;;7.97;6.77;;;4.90;99.90;;;;;;5015241;28;20448;-76
2021/05/03 01:11:31;;;;;;;9.23;6.87;;;4.90;99.90;;;;;;5015227;28;20455;-76
2021/05/03 01:13:57;;;;;;;9.27;7.07;;;4.90;99.90;;;;;;5015200;28;20851;-76
2021/05/03 01:16:24;;;;;;;7.20;6.47;;;4.80;99.90;;;;;;5014720;28;20498;-76
2021/05/03 01:18:50;;;;;;;8.57;7.13;;;4.80;99.90;;;;;;5014820;28;20455;-76
2021/05/03 01:21:23;;;;;;;8.13;7.20;;;4.80;99.90;;;;;;5015022;28;20459;-76
2021/05/03 01:23:49;;;;;;;11.43;7.23;;;4.80;99.90;;;;;;5014950;28;20474;-76
2021/05/03 01:26:16;;;;;;;10.93;7.43;;;4.70;99.90;;;;;;5014585;28;20501;-76
2021/05/03 01:28:42;;;;;;;8.70;6.57;;;4.70;99.90;;;;;;5014879;28;20503;-76
2021/05/03 01:31:09;;;;;;;8.20;6.70;;;4.60;99.90;;;;;;5014851;28;20458;-75
2021/05/03 01:33:35;;;;;;;11.80;7.30;;;4.60;99.90;;;;;;5014490;28;20443;-76
2021/05/03 01:36:02;;;;;;;10.00;6.83;;;4.60;99.90;;;;;;5014370;28;20943;-76
2021/05/03 01:38:29;;;;;;;9.63;7.17;;;4.50;99.90;;;;;;5014399;28;20977;-76
2021/05/03 01:40:55;;;;;;;10.10;7.50;;;4.60;99.90;;;;;;5014708;28;20865;-76
2021/05/03 01:43:25;;;;;;;17.10;7.13;;;4.50;99.90;;;;;;5014490;28;20447;-76
2021/05/03 01:45:53;;;;;;;8.93;7.30;;;4.60;99.90;;;;;;5014594;28;20457;-76
2021/05/03 01:48:21;;;;;;;10.37;7.67;;;4.60;99.90;;;;;;5014169;28;21015;-76
2021/05/03 01:50:48;;;;;;;10.00;7.37;;;4.50;99.90;;;;;;5014505;28;20454;-76
2021/05/03 01:53:15;;;;;;;10.10;7.20;;;4.50;99.90;;;;;;5014484;28;20459;-76
2021/05/03 01:55:43;;;;;;;14.30;7.93;;;4.40;99.90;;;;;;5014397;28;20447;-76
2021/05/03 01:58:10;;;;;;;11.17;7.90;;;4.40;99.90;;;;;;5013634;28;20472;-76
2021/05/03 02:00:36;;;;;;;9.97;7.83;;;4.50;99.90;;;;;;5014315;28;20451;-76
2021/05/03 02:03:03;;;;;;;9.47;8.20;;;4.50;99.90;;;;;;5014283;28;20451;-76
2021/05/03 02:05:30;;;;;;;11.93;8.10;;;4.50;99.90;;;;;;5014191;28;20578;-76
2021/05/03 02:07:57;;;;;;;9.63;7.20;;;4.60;99.90;;;;;;5014121;28;20475;-76
2021/05/03 02:10:24;;;;;;;12.97;8.00;;;4.60;99.90;;;;;;5014130;28;20462;-76
2021/05/03 02:12:52;;;;;;;10.90;8.10;;;4.60;99.90;;;;;;5014148;28;20860;-76
2021/05/03 02:15:18;;;;;;;10.10;7.67;;;4.60;99.90;;;;;;5014062;28;20447;-76
2021/05/03 02:17:44;;;;;;;10.90;7.53;;;4.60;99.90;;;;;;5013666;28;20494;-76
2021/05/03 02:20:12;;;;;;;11.53;8.37;;;4.60;99.90;;;;;;5014035;28;20470;-76
2021/05/03 02:22:38;;;;;;;11.10;8.10;;;4.70;99.90;;;;;;5013617;28;20486;-76
2021/05/03 02:25:05;;;;;;;8.83;7.63;;;4.70;99.90;;;;;;5013895;28;20487;-76
2021/05/03 02:27:31;;;;;;;9.60;7.60;;;4.70;99.90;;;;;;5013532;28;21009;-76
2021/05/03 02:29:58;;;;;;;8.70;7.75;;;4.70;99.90;;;;;;5013462;28;20467;-76
2021/05/03 02:32:25;;;;;;;9.83;7.37;;;4.80;99.90;;;;;;5013532;28;20449;-76
2021/05/03 02:34:51;;;;;;;10.70;7.70;;;4.80;99.90;;;;;;5013830;28;20450;-78
2021/05/03 02:37:20;;;;;;;9.70;8.30;;;4.80;99.90;;;;;;5013373;28;20468;-78
2021/05/03 02:39:46;;;;;;;10.20;8.10;;;4.90;99.90;;;;;;5013752;28;20849;-78
2021/05/03 02:42:14;;;;;;;10.33;8.13;;;4.80;99.90;;;;;;5013676;28;20452;-78
2021/05/03 02:44:42;;;;;;;13.77;8.27;;;4.80;99.90;;;;;;5013652;28;20499;-78
2021/05/03 02:47:10;;;;;;;10.43;7.83;;;4.80;99.90;;;;;;5013603;28;20573;-78
2021/05/03 02:49:36;;;;;;;8.33;7.27;;;4.70;99.90;;;;;;5013329;28;20951;-78
2021/05/03 02:52:04;;;;;;;10.23;7.50;;;4.70;99.90;;;;;;5013572;28;20451;-78
2021/05/03 02:54:30;;;;;;;9.13;8.13;;;4.60;99.90;;;;;;5013573;28;20447;-78
2021/05/03 02:56:56;;;;;;;10.97;7.90;;;4.60;99.90;;;;;;5013499;28;20475;-78
2021/05/03 02:59:22;;;;;;;9.70;7.97;;;4.60;99.90;;;;;;5013544;28;20535;-78
2021/05/03 03:01:49;;;;;;;11.77;8.03;;;4.60;99.90;;;;;;5013171;28;20451;-78
2021/05/03 03:04:17;;;;;;;10.70;8.20;;;4.50;99.90;;;;;;5013440;28;20479;-77
2021/05/03 03:06:43;;;;;;;11.53;8.40;;;4.50;99.90;;;;;;5013384;28;20472;-77
2021/05/03 03:09:09;;;;;;;10.10;8.10;;;4.50;99.90;;;;;;5013168;28;20451;-77
2021/05/03 03:11:37;;;;;;;10.70;7.33;;;4.50;99.90;;;;;;5017037;28;20454;-77
2021/05/03 03:14:03;;;;;;;11.77;8.27;;;4.50;99.90;;;;;;5017409;28;20451;-77
2021/05/03 03:16:31;;;;;;;12.80;8.83;;;4.50;99.90;;;;;;5017272;28;20467;-77
2021/05/03 03:18:59;;;;;;;11.07;8.30;;;4.40;99.90;;;;;;5017327;28;20455;-77
2021/05/03 03:21:26;;;;;;;10.93;8.37;;;4.40;99.90;;;;;;5017466;28;20812;-77
2021/05/03 03:23:52;;;;;;;12.77;8.90;;;4.30;99.90;;;;;;5017123;28;20495;-78
2021/05/03 03:26:19;;;;;;;11.80;7.97;;;4.20;99.90;;;;;;5017111;28;20858;-78
2021/05/03 03:28:46;;;;;;;13.87;10.10;;;4.20;99.90;;;;;;5017123;28;20456;-77
2021/05/03 03:31:12;;;;;;;10.03;8.03;;;4.10;99.90;;;;;;5017058;28;20451;-77
2021/05/03 03:33:39;;;;;;;14.83;8.80;;;4.10;99.90;;;;;;5016790;28;20951;-77
2021/05/03 03:36:06;;;;;;;11.73;8.67;;;4.10;99.90;;;;;;5016961;28;20478;-77
2021/05/03 03:38:33;;;;;;;10.80;8.10;;;4.10;99.90;;;;;;5016638;28;20947;-76
2021/05/03 03:41:00;;;;;;;11.70;8.97;;;4.10;99.90;;;;;;5017456;28;20450;-75
2021/05/03 03:43:26;;;;;;;12.97;9.30;;;4.10;99.90;;;;;;5016761;28;20455;-75
2021/05/03 03:45:52;;;;;;;12.77;9.10;;;4.10;99.90;;;;;;5016813;28;20486;-75
2021/05/03 03:48:19;;;;;;;11.20;8.10;;;4.20;99.90;;;;;;5016482;28;20455;-75
2021/05/03 03:50:45;;;;;;;12.40;8.20;;;4.20;99.90;;;;;;5016414;28;20467;-75
2021/05/03 03:53:11;;;;;;;10.90;7.90;;;4.20;99.90;;;;;;5016709;28;20447;-75
2021/05/03 03:55:39;;;;;;;11.33;8.30;;;4.20;99.90;;;;;;5016646;28;20450;-75
2021/05/03 03:58:05;;;;;;;9.93;8.23;;;4.20;99.90;;;;;;5016185;28;20479;-75
2021/05/03 04:00:31;;;;;;;11.60;8.87;;;4.10;99.90;;;;;;5016545;28;20534;-75
2021/05/03 04:02:58;;;;;;;10.00;8.17;;;4.10;99.90;;;;;;5016165;28;20969;-75
2021/05/03 04:05:34;;;;;;;11.17;8.40;;;4.10;99.90;;;;;;5016363;28;20577;-77
2021/05/03 04:08:06;;;;;;;11.03;7.93;;;4.10;99.90;;;;;;5016531;28;20478;-77
2021/05/03 04:10:42;;;;;;;11.50;8.60;;;4.00;99.90;;;;;;5017073;28;20893;-77
2021/05/03 04:21:26;;;;;;;12.40;8.40;;;3.90;99.90;;;;;;5016065;28;20450;-80
2021/05/03 04:24:08;;;;;;;12.57;8.97;;;3.90;99.90;;;;;;5016099;28;20526;-81
2021/05/03 04:26:34;;;;;;;12.50;8.77;;;3.90;99.90;;;;;;5016043;28;20471;-81
2021/05/03 04:29:01;;;;;;;11.80;8.73;;;3.90;99.90;;;;;;5016065;28;20462;-81
2021/05/03 04:31:28;;;;;;;14.63;9.37;;;4.00;99.90;;;;;;5016003;28;20448;-81
2021/05/03 04:33:54;;;;;;;11.57;8.20;;;4.00;99.90;;;;;;5015918;28;20440;-81
2021/05/03 04:36:21;;;;;;;12.27;8.30;;;4.00;99.90;;;;;;5015799;28;20447;-80
2021/05/03 04:38:48;;;;;;;10.23;7.90;;;4.00;99.90;;;;;;5015822;28;20455;-81
2021/05/03 04:41:14;;;;;;;14.57;8.83;;;4.00;99.90;;;;;;5015769;28;20447;-81
2021/05/03 04:43:40;;;;;;;11.70;8.67;;;4.00;99.90;;;;;;5015689;28;20447;-81
2021/05/03 04:46:08;;;;;;;12.43;8.43;;;4.10;99.90;;;;;;5015650;28;20447;-80
2021/05/03 04:48:34;;;;;;;11.53;8.13;;;4.10;99.90;;;;;;5015675;28;20452;-75
2021/05/03 04:51:00;;;;;;;15.83;9.17;;;4.10;99.90;;;;;;5015819;28;20451;-75
2021/05/03 04:53:27;;;;;;;11.33;9.07;;;4.20;99.90;;;;;;5015581;28;20447;-75
2021/05/03 04:55:53;;;;;;;11.70;7.97;;;4.30;99.90;;;;;;5015597;28;20456;-75
2021/05/03 04:58:19;;;;;;;10.67;7.80;;;4.30;99.90;;;;;;5015611;28;20538;-75
2021/05/03 05:00:46;;;;;;;10.83;9.10;;;4.30;99.90;;;;;;5015154;28;20454;-75
2021/05/03 05:03:13;;;;;;;10.90;8.33;;;4.40;99.90;;;;;;5015710;28;20455;-75
2021/05/03 05:05:39;;;;;;;14.73;8.40;;;4.40;99.90;;;;;;5015000;28;20517;-75
2021/05/03 05:08:06;;;;;;;11.00;8.60;;;4.40;99.90;;;;;;5015198;28;20468;-75
2021/05/03 05:10:32;;;;;;;12.07;8.20;;;4.50;99.90;;;;;;5014932;28;20447;-75
2021/05/03 05:12:58;;;;;;;11.43;8.50;;;4.50;99.90;;;;;;5015192;28;20444;-75
2021/05/03 05:15:24;;;;;;;11.20;8.03;;;4.60;99.90;;;;;;5015138;28;20448;-77
2021/05/03 05:17:51;;;;;;;10.67;8.20;;;4.60;99.90;;;;;;5015015;28;20468;-77
2021/05/03 05:20:21;;;;;;;11.27;8.07;;;4.60;99.90;;;;;;5015084;28;20451;-77
2021/05/03 05:22:47;;;;;;;9.60;7.50;;;4.70;99.90;;;;;;5014920;28;20537;-77
2021/05/03 05:25:13;;;;;;;14.63;8.80;;;4.80;99.90;;;;;;5014905;28;20491;-80
2021/05/03 05:27:40;;;;;;;13.33;8.60;;;4.90;99.90;;;;;;5014855;28;20517;-81
2021/05/03 05:30:07;;;;;;;11.40;8.23;;;5.00;99.90;;;;;;5015316;28;20458;-81
2021/05/03 05:32:34;;;;;;;9.17;8.27;;;5.00;99.90;;;;;;5014449;28;20452;-81
2021/05/03 05:35:00;;;;;;;9.57;7.50;;;5.10;99.90;;;;;;5015373;28;20443;-80
2021/05/03 05:37:27;;;;;;;11.77;7.40;;;5.20;99.90;;;;;;5014719;28;20475;-80
2021/05/03 05:39:53;;;;;;;9.87;7.93;;;5.20;99.90;;;;;;5014817;28;20463;-80
2021/05/03 05:42:19;;;;;;;9.37;6.80;;;5.20;99.90;;;;;;5014698;28;20460;-80
2021/05/03 05:44:46;;;;;;;9.00;7.73;;;5.30;99.90;;;;;;5014217;28;21081;-80
2021/05/03 05:47:12;;;;;;;12.40;7.80;;;5.40;99.90;;;;;;5014307;28;20467;-80
2021/05/03 05:49:38;;;;;;;12.80;8.57;;;5.40;99.90;;;;;;5014526;28;20451;-81
2021/05/03 05:52:05;;;;;;;9.97;8.00;;;5.60;99.90;;;;;;5014185;28;20946;-80
2021/05/03 05:54:32;;;;;;;10.33;7.80;;;5.60;99.90;;;;;;5014419;28;20443;-80
2021/05/03 05:56:58;;;;;;;11.13;7.87;;;5.70;99.90;;;;;;5014040;28;20876;-80
2021/05/03 05:59:25;;;;;;;10.53;7.50;;;6.00;99.90;;;;;;5014361;28;20495;-80
2021/05/03 06:01:51;;;;;;;9.23;7.50;;;6.20;99.90;;;;;;5014335;28;20451;-80
2021/05/03 06:04:17;;;;;;;11.20;8.03;;;6.40;99.90;;;;;;5014209;28;20486;-80
2021/05/03 06:06:44;;;;;;;9.20;6.67;;;6.60;99.90;;;;;;5014202;28;20464;-80
2021/05/03 06:09:10;;;;;;;8.53;6.83;;;6.80;99.90;;;;;;5014010;28;20974;-80
2021/05/03 06:11:38;;;;;;;7.70;6.90;;;7.20;99.90;;;;;;5014226;28;20448;-80
2021/05/03 06:14:04;;;;;;;10.10;7.00;;;7.40;99.90;;;;;;5014180;28;20493;-80
2021/05/03 06:16:30;;;;;;;8.30;6.97;;;7.60;99.90;;;;;;5014152;28;20468;-80
2021/05/03 06:18:57;;;;;;;8.23;6.90;;;7.90;99.90;;;;;;5014074;28;20525;-81
2021/05/03 06:21:23;;;;;;;6.83;6.10;;;8.10;99.90;;;;;;5014052;28;20452;-78
2021/05/03 06:23:49;;;;;;;8.23;6.73;;;8.40;99.90;;;;;;5013665;28;20959;-78
2021/05/03 06:26:16;;;;;;;7.00;6.30;;;8.70;99.90;;;;;;5013699;28;20444;-76
2021/05/03 06:28:43;;;;;;;8.90;6.90;;;9.10;99.90;;;;;;5013956;28;20458;-76
2021/05/03 06:31:09;;;;;;;6.53;5.77;;;9.50;99.90;;;;;;5013644;28;20955;-75
2021/05/03 06:33:35;;;;;;;10.13;6.10;;;9.90;99.90;;;;;;5013501;28;20884;-75
2021/05/03 06:36:03;;;;;;;7.73;6.90;;;10.20;99.90;;;;;;5013792;28;20451;-75
2021/05/03 06:38:29;;;;;;;6.80;5.80;;;10.80;99.90;;;;;;5013784;28;20452;-75
2021/05/03 06:40:55;;;;;;;8.20;6.50;;;11.30;99.90;;;;;;5013774;28;20466;-75
2021/05/03 06:43:21;;;;;;;8.17;6.80;;;11.50;99.90;;;;;;5013780;28;20452;-75
2021/05/03 06:45:49;;;;;;;8.80;6.00;;;11.80;99.90;;;;;;5013923;28;20490;-75
2021/05/03 06:48:16;;;;;;;6.90;6.20;;;11.80;99.00;;;;;;5013600;28;20479;-75
2021/05/03 06:50:43;;;;;;;7.20;6.50;;;12.20;98.20;;;;;;5013659;28;20451;-75
2021/05/03 06:53:10;;;;;;;6.93;6.23;;;12.90;98.20;;;;;;5013646;28;20443;-75
2021/05/03 06:55:36;;;;;;;6.47;5.90;;;14.00;94.30;;;;;;5013611;28;20444;-76
2021/05/03 06:58:03;;;;;;;10.47;7.03;;;14.90;91.00;;;;;;5013197;28;21017;-75
2021/05/03 07:00:29;;;;;;;6.37;5.77;;;15.70;85.30;;;;;;5013210;28;20427;-76
2021/05/03 07:02:56;;;;;;;5.70;5.20;;;16.20;81.40;;;;;;5013505;28;20427;-75
2021/05/03 07:05:23;;;;;;;6.23;5.63;;;17.10;75.50;;;;;;5013453;28;20459;-80
2021/05/03 07:07:49;;;;;;;6.00;5.50;;;18.00;71.50;;;;;;5013414;28;20468;-80
2021/05/03 07:10:15;;;;;;;5.97;5.37;;;18.50;65.80;;;;;;5013476;28;20450;-81
2021/05/03 07:12:44;;;;;;;5.97;5.43;;;18.60;63.80;;;;;;5013150;28;20962;-80
2021/05/03 07:15:12;;;;;;;5.70;5.30;;;18.80;63.30;;;;;;5013419;28;20458;-80
2021/05/03 07:17:39;;;;;;;12.27;6.70;;;18.90;62.00;;;;;;5013132;28;20493;-81
2021/05/03 07:20:08;;;;;;;6.87;6.23;;;18.80;62.20;;;;;;5013307;28;20450;-81
2021/05/03 07:22:34;;;;;;;6.03;5.53;;;19.30;59.60;;;;;;5013009;28;20479;-76
2021/05/03 07:25:02;;;;;;;5.80;5.30;;;20.10;58.10;;;;;;5012937;28;20719;-76
2021/05/03 07:27:28;;;;;;;5.68;5.28;;;20.70;57.20;;;;;;5013778;28;20224;-76
2021/05/03 07:29:55;;;;;;;6.85;6.25;;;21.50;55.10;;;;;;5013221;28;20212;-76
2021/05/03 07:32:21;;;;;;;6.15;5.65;;;22.10;52.20;;;;;;5013244;28;20204;-76
2021/05/03 07:34:47;;;;;;;6.90;6.22;;;22.80;50.70;;;;;;5013180;28;20207;-76
2021/05/03 07:37:14;;;;;;;5.72;5.13;;;23.80;48.40;;;;;;5012776;28;20742;-76
2021/05/03 07:39:42;;;;;;;5.95;5.55;;;24.40;47.10;;;;;;5013512;28;20205;-76
2021/05/03 07:42:08;;;;;;;5.22;4.82;;;25.40;45.80;;;;;;5013493;28;20212;-76
2021/05/03 07:44:35;;;;;;;5.72;5.22;;;26.10;41.10;;;;;;5013057;28;20279;-76
2021/05/03 07:47:01;;;;;;;6.15;5.60;;;26.30;40.80;;;;;;5013521;28;20637;-76
2021/05/03 07:49:28;;;;;;;5.72;5.32;;;26.90;38.40;;;;;;5012786;28;20214;-76
2021/05/03 07:51:54;;;;;;;5.68;5.28;;;26.70;37.90;;;;;;5013787;28;20257;-76
2021/05/03 07:54:21;;;;;;;5.40;5.00;;;27.50;38.30;;;;;;5013063;28;20201;-76
2021/05/03 07:56:48;;;;;;;5.35;4.95;;;27.50;37.30;;;;;;5014719;28;20695;-76
2021/05/03 07:59:14;;;;;;;5.80;4.72;;;26.80;37.20;;;;;;5016894;28;20204;-76
2021/05/03 08:01:40;;;;;;;5.32;4.93;;;24.90;38.30;;;;;;5016670;28;20206;-76
2021/05/03 08:04:07;;;;;;;6.65;6.15;;;22.90;39.60;;;;;;5016391;28;20224;-76
2021/05/03 08:06:33;;;;;;;5.82;4.95;;;20.40;42.50;;;;;;5016357;28;20235;-76
2021/05/03 08:09:03;;;;;;;6.25;4.75;;;19.20;45.30;;;;;;5016501;28;20258;-76
2021/05/03 08:11:31;;;;;;;5.67;5.27;;;18.30;47.00;;;;;;5016499;28;20271;-75
2021/05/03 08:13:57;;;;;;;7.00;6.30;;;17.30;48.10;;;;;;5016366;28;20517;-76
2021/05/03 08:16:25;;;;;;;6.00;5.50;;;16.30;49.60;;;;;;5016337;28;20621;-75
2021/05/03 08:18:51;;;;;;;7.40;5.97;;;15.70;51.10;;;;;;5016288;28;20506;-75
2021/05/03 08:21:17;;;;;;;5.20;4.80;;;15.10;52.60;;;;;;5016213;28;20505;-75
2021/05/03 08:23:43;;;;;;;4.80;4.40;;;14.90;54.20;;;;;;5015753;28;20505;-75
2021/05/03 08:26:10;;;;;;;4.20;3.90;;;15.40;55.30;;;;;;5015661;28;21015;-75
2021/05/03 08:28:39;;;;;;;7.20;4.50;;;15.40;52.00;;;;;;5015413;28;20456;-75
2021/05/03 08:31:06;;;;;;;5.40;4.80;;;15.10;50.10;;;;;;5015261;28;20444;-75
2021/05/03 08:33:32;;;;;;;5.20;4.70;;;14.80;51.40;;;;;;5014371;28;20436;-75
2021/05/03 08:35:58;;;;;;;5.00;4.47;;;14.50;51.90;;;;;;5015322;28;20926;-75
2021/05/03 08:38:25;;;;;;;4.90;4.50;;;14.00;53.30;;;;;;5015189;28;20468;-75
2021/05/03 08:40:53;;;;;;;4.33;4.00;;;13.70;53.40;;;;;;5015586;28;20907;-75
2021/05/03 08:43:20;;;;;;;3.83;3.53;;;13.30;54.80;;;;;;5015833;28;20448;-75
2021/05/03 08:45:48;;;;;;;4.20;3.80;;;12.90;55.30;;;;;;5005753;28;20888;-75
2021/05/03 08:48:21;;;;;;;4.20;3.90;;;12.70;56.00;;;;;;5015644;28;20472;-75
2021/05/03 08:50:55;;;;;;;4.90;4.50;;;12.50;55.80;;;;;;5015340;28;20915;-75
2021/05/03 08:53:28;;;;;;;4.60;4.10;;;12.30;57.20;;;;;;5015664;28;20440;-75
2021/05/03 08:55:55;;;;;;;4.13;3.83;;;12.10;61.90;;;;;;5015766;28;20428;-75
2021/05/03 08:58:21;;;;;;;4.47;4.07;;;12.00;62.00;;;;;;5012366;28;20464;-74
2021/05/03 09:00:48;;;;;;;4.70;4.20;;;12.00;62.50;;;;;;5002337;28;20810;-75
2021/05/03 09:03:15;;;;;;;4.40;4.00;;;12.10;63.90;;;;;;4995609;28;20821;-75
2021/05/03 09:05:42;;;;;;;4.10;3.80;;;12.40;60.20;;;;;;4995888;28;20487;-75
2021/05/03 09:08:12;;;;;;;5.60;4.00;;;12.80;60.90;;;;;;5010976;28;20471;-75
2021/05/03 09:10:45;;;;;;;4.60;4.20;;;13.10;57.20;;;;;;5015341;28;20490;-75
2021/05/03 09:13:13;;;;;;;5.30;4.57;;;13.40;57.50;;;;;;5012388;28;20436;-75
2021/05/03 09:15:39;;;;;;;3.60;3.30;;;13.80;55.10;;;;;;5003820;28;20436;-75
2021/05/03 09:18:07;;;;;;;3.90;3.60;;;14.10;53.40;;;;;;4995163;28;20464;-75
2021/05/03 09:20:34;;;;;;;3.93;3.60;;;15.10;55.10;;;;;;4995091;28;21098;-76
2021/05/03 09:23:05;;;;;;;4.10;3.80;;;16.70;54.70;;;;;;4995019;28;20491;-75
2021/05/03 09:25:34;;;;;;;3.70;3.50;;;18.00;48.80;;;;;;4995442;28;20479;-75
2021/05/03 09:28:03;;;;;;;4.87;3.70;;;19.00;48.60;;;;;;4995738;28;20889;-75
2021/05/03 09:30:41;;;;;;;3.33;3.03;;;19.40;44.20;;;;;;5006488;28;20440;-75
2021/05/03 09:33:20;;;;;;;3.30;3.10;;;18.80;44.30;;;;;;5014849;28;20435;-75
2021/05/03 09:35:54;;;;;;;4.07;3.67;;;18.20;45.50;;;;;;5014795;28;20439;-75
2021/05/03 09:38:33;;;;;;;3.93;3.60;;;17.30;47.00;;;;;;5014718;28;20481;-75
2021/05/03 09:41:20;;;;;;;4.80;4.27;;;16.50;48.40;;;;;;5014749;28;20446;-75
2021/05/03 09:43:48;;;;;;;3.30;3.10;;;15.80;49.40;;;;;;5011125;28;20441;-75
2021/05/03 09:46:32;;;;;;;3.80;3.50;;;15.10;50.40;;;;;;4997736;28;20976;-76
2021/05/03 09:49:01;;;;;;;3.37;3.10;;;14.60;49.00;;;;;;4994544;28;20444;-75
2021/05/03 09:51:42;;;;;;;3.53;3.03;;;14.20;51.30;;;;;;4994938;28;20441;-75
2021/05/03 09:54:11;;;;;;;3.73;3.43;;;14.00;53.40;;;;;;4994983;28;20436;-75
2021/05/03 09:56:49;;;;;;;4.00;3.50;;;13.70;51.40;;;;;;4994808;28;20464;-75
2021/05/03 09:59:29;;;;;;;3.47;3.20;;;13.60;52.70;;;;;;4999214;28;20475;-75
2021/05/03 10:02:19;;;;;;;3.43;3.23;;;13.60;53.30;;;;;;4995880;28;20441;-75
2021/05/03 10:05:07;;;;;;;3.37;3.17;;;13.50;54.30;;;;;;4990756;28;20502;-75
2021/05/03 10:07:37;;;;;;;3.27;3.03;;;13.50;51.30;;;;;;4994643;28;20472;-75
2021/05/03 10:10:08;;;;;;;2.50;2.40;;;13.60;51.30;;;;;;4994629;28;20523;-75
2021/05/03 10:12:35;;;;;;;4.20;3.57;;;13.80;51.00;;;;;;4994380;28;20444;-75
2021/05/03 10:15:04;;;;;;;3.63;3.40;;;14.10;50.20;;;;;;4994297;28;20901;-75
2021/05/03 10:17:31;;;;;;;3.80;3.40;;;14.50;50.90;;;;;;4994432;28;20472;-75
2021/05/03 10:19:59;;;;;;;4.00;3.57;;;14.60;49.90;;;;;;4994216;28;20444;-75
2021/05/03 10:22:28;;;;;;;7.57;5.53;;;14.80;50.50;;;;;;4993984;28;20847;-77
2021/05/03 10:24:57;;;;;;;3.27;2.97;;;15.20;49.80;;;;;;4993822;28;21118;-75
2021/05/03 10:27:25;;;;;;;2.47;2.27;;;15.70;47.80;;;;;;4994116;28;20479;-75
2021/05/03 10:30:08;;;;;;;2.70;2.50;;;16.60;47.30;;;;;;4998957;28;20455;-75
2021/05/03 10:32:35;;;;;;;3.20;2.70;;;18.60;47.50;;;;;;4993959;28;20939;-75
2021/05/03 10:35:02;;;;;;;2.83;2.70;;;19.40;43.20;;;;;;4994246;28;20425;-75
2021/05/03 10:37:51;;;;;;;3.00;2.90;;;19.40;40.40;;;;;;4993596;28;21005;-75
2021/05/03 10:40:47;;;;;;;3.30;3.10;;;19.20;41.90;;;;;;4993991;28;20464;-75
2021/05/03 10:43:18;;;;;;;2.50;2.30;;;18.60;42.00;;;;;;4996661;28;20444;-75
2021/05/03 10:45:51;;;;;;;2.50;2.30;;;17.90;42.60;;;;;;4997146;28;20472;-75
2021/05/03 10:48:42;;;;;;;2.60;2.43;;;17.00;42.50;;;;;;4994071;28;20872;-75
2021/05/03 10:51:29;;;;;;;2.57;2.47;;;16.40;43.40;;;;;;4994049;28;20429;-75
2021/05/03 10:53:57;;;;;;;4.20;2.47;;;15.90;46.30;;;;;;4993610;28;20460;-75
2021/05/03 10:56:38;;;;;;;3.07;2.87;;;15.60;47.60;;;;;;4993898;28;20448;-75
2021/05/03 10:59:09;;;;;;;2.87;2.67;;;15.40;43.60;;;;;;4999144;28;20440;-75
2021/05/03 11:02:11;;;;;;;2.50;2.40;;;15.40;44.80;;;;;;5009748;28;20462;-74
2021/05/03 11:04:39;;;;;;;2.70;2.50;;;16.10;45.60;;;;;;5013690;28;20474;-76
2021/05/03 11:07:08;;;;;;;2.50;2.30;;;16.90;45.10;;;;;;5013455;28;20830;-75
2021/05/03 11:09:38;;;;;;;3.60;2.57;;;17.00;43.30;;;;;;5013037;28;20439;-75
2021/05/03 11:12:27;;;;;;;2.70;2.50;;;17.00;42.30;;;;;;5012137;28;20440;-75
2021/05/03 11:15:19;;;;;;;2.40;2.20;;;17.00;41.30;;;;;;5008584;28;20490;-76
2021/05/03 11:18:20;;;;;;;2.43;2.33;;;16.90;43.20;;;;;;5005698;28;20479;-76
2021/05/03 11:21:17;;;;;;;3.43;2.60;;;16.60;42.60;;;;;;5012430;28;20436;-75
2021/05/03 11:23:44;;;;;;;2.43;2.30;;;16.10;43.00;;;;;;5000300;28;20824;-76
2021/05/03 11:26:25;;;;;;;2.10;2.00;;;16.00;44.90;;;;;;4993620;28;20476;-76
2021/05/03 11:28:51;;;;;;;2.87;2.67;;;15.80;45.50;;;;;;4994240;28;20440;-76
2021/05/03 11:31:21;;;;;;;2.90;2.30;;;15.70;46.40;;;;;;5003790;28;20493;-75
2021/05/03 11:34:02;;;;;;;3.00;2.80;;;15.70;45.10;;;;;;5016405;28;20451;-76
2021/05/03 11:36:37;;;;;;;2.00;1.90;;;15.70;46.00;;;;;;5017208;28;20553;-75
2021/05/03 11:39:12;;;;;;;2.73;2.53;;;15.80;45.00;;;;;;5016886;28;20482;-75
2021/05/03 11:44:45;;;;;;;2.73;2.53;;;15.20;46.30;;;;;;5011520;28;20516;-75
2021/05/03 11:47:12;;;;;;;2.40;2.20;;;14.80;47.50;;;;;;5009590;28;20468;-75
2021/05/03 11:49:43;;;;;;;1.90;1.80;;;14.70;46.70;;;;;;4996644;28;20882;-75
2021/05/03 11:52:10;;;;;;;2.63;2.43;;;14.50;45.80;;;;;;4996900;28;20452;-75
2021/05/03 11:54:41;;;;;;;2.53;2.33;;;14.40;47.90;;;;;;4996673;28;20528;-75
2021/05/03 11:57:12;;;;;;;2.23;2.03;;;14.60;46.60;;;;;;5015953;28;20469;-75
2021/05/03 11:59:40;;;;;;;2.73;2.47;;;14.50;47.50;;;;;;5013169;28;20931;-75
2021/05/03 12:02:09;;;;;;;3.30;2.73;;;14.80;47.40;;;;;;4999653;28;20425;-75
2021/05/03 12:04:40;;;;;;;2.10;2.00;;;15.00;46.10;;;;;;4997015;28;20471;-75
2021/05/03 12:07:18;;;;;;;2.00;1.90;;;15.20;45.90;;;;;;4996461;28;21016;-75
2021/05/03 12:09:45;;;;;;;1.93;1.80;;;15.10;45.60;;;;;;4996887;28;20440;-75
2021/05/03 12:12:16;;;;;;;1.90;1.80;;;15.00;45.80;;;;;;4996663;28;20491;-75
2021/05/03 12:14:44;;;;;;;2.27;2.10;;;14.70;45.70;;;;;;4996803;28;20433;-75
2021/05/03 12:17:18;;;;;;;2.23;2.13;;;14.60;46.40;;;;;;5000216;28;20575;-75
2021/05/03 12:19:45;;;;;;;2.60;1.80;;;14.40;46.10;;;;;;5010353;28;20424;-75
2021/05/03 12:22:11;;;;;;;2.07;1.93;;;14.30;46.70;;;;;;5016028;28;20483;-76
2021/05/03 12:24:40;;;;;;;1.93;1.83;;;14.30;48.10;;;;;;5016069;28;20483;-75
2021/05/03 12:27:07;;;;;;;2.00;1.90;;;14.20;46.70;;;;;;5016080;28;20472;-76
2021/05/03 12:29:36;;;;;;;2.20;2.03;;;14.20;46.00;;;;;;5008503;28;20447;-75
2021/05/03 12:32:07;;;;;;;2.40;2.20;;;14.10;46.10;;;;;;4998667;28;20449;-76
2021/05/03 12:34:39;;;;;;;2.17;2.00;;;14.20;45.60;;;;;;4996581;28;20433;-76
2021/05/03 12:37:08;;;;;;;1.70;1.60;;;14.40;47.00;;;;;;4996384;28;20507;-75
2021/05/03 12:39:35;;;;;;;2.17;2.07;;;14.70;47.70;;;;;;4996181;28;20952;-75
2021/05/03 12:42:13;;;;;;;2.20;2.00;;;14.90;46.20;;;;;;4996247;28;20409;-75
2021/05/03 12:44:42;;;;;;;2.40;2.20;;;14.90;45.80;;;;;;5004745;28;20478;-76
2021/05/03 12:47:24;;;;;;;2.33;2.13;;;15.10;46.70;;;;;;4997545;28;20873;-76
2021/05/03 12:49:57;;;;;;;2.30;2.10;;;15.10;44.10;;;;;;4996223;28;20439;-76
2021/05/03 12:52:30;;;;;;;1.93;1.83;;;14.90;45.50;;;;;;4995792;28;20506;-76
2021/05/03 12:55:01;;;;;;;1.90;1.80;;;14.70;45.90;;;;;;4996231;28;20433;-75
2021/05/03 12:57:44;;;;;;;2.30;1.53;;;14.50;46.40;;;;;;4996310;28;20476;-75
2021/05/03 13:00:18;;;;;;;1.50;1.40;;;14.50;46.50;;;;;;4995728;28;20452;-76
2021/05/03 13:03:08;;;;;;;1.50;1.40;;;14.40;45.00;;;;;;4994990;28;20535;-76
2021/05/03 13:05:39;;;;;;;1.73;1.63;;;14.10;45.40;;;;;;4995789;28;20469;-75
2021/05/03 13:08:29;;;;;;;2.17;1.80;;;14.10;47.60;;;;;;5006634;28;20460;-75